Time;durP1;ratioP1;P1;durP2;ratioP2;P2;SDS_P1;SDS_P2;PMS_P1;PMS_P2;Temp;Humidity;BMP_temperature;BMP_pressure;BME280_temperature;BME280_humidity;BME280_pressure;Samples;Min_cycle;Max_cycle;Signal;HPM_P1;HPM_P2
2021/05/17 00:02:21;;;;;;;3.08;1.10;;;;;;;10.66;79.94;99691.94;5004174;28;20034;-84
2021/05/17 00:04:48;;;;;;;2.88;1.15;;;;;;;10.75;79.60;99705.41;5000918;28;20042;-85
2021/05/17 00:07:15;;;;;;;2.42;1.10;;;;;;;10.51;79.55;99677.97;4999836;28;20093;-86
2021/05/17 00:09:40;;;;;;;4.78;1.23;;;;;;;10.69;79.63;99712.66;4999777;28;20094;-85
2021/05/17 00:12:07;;;;;;;2.05;1.10;;;;;;;10.50;79.35;99672.84;5001435;28;20038;-85
2021/05/17 00:14:33;;;;;;;2.00;1.00;;;;;;;10.71;79.57;99710.78;5005143;28;20034;-86
2021/05/17 00:16:59;;;;;;;2.00;0.90;;;;;;;10.60;80.12;99705.31;5004088;28;20049;-86
2021/05/17 00:19:25;;;;;;;6.93;1.23;;;;;;;10.29;79.67;99646.09;4992505;28;20072;-86
2021/05/17 00:21:51;;;;;;;3.20;1.00;;;;;;;10.64;79.93;99704.22;5014966;28;20038;-86
2021/05/17 00:24:18;;;;;;;3.45;1.33;;;;;;;10.75;79.92;99726.31;5013033;28;20038;-85
2021/05/17 00:26:45;;;;;;;2.80;1.20;;;;;;;10.51;79.69;99682.31;5013972;28;20034;-86
2021/05/17 00:29:10;;;;;;;4.18;1.05;;;;;;;10.83;79.51;99726.72;5014414;28;20088;-86
2021/05/17 00:31:38;;;;;;;4.03;1.00;;;;;;;10.82;79.70;99731.09;5006779;28;20050;-86
2021/05/17 00:34:04;;;;;;;2.90;0.90;;;;;;;10.55;79.92;99700.34;4994778;28;20111;-87
2021/05/17 00:36:31;;;;;;;4.47;1.23;;;;;;;10.66;79.86;99722.44;5011925;28;20038;-86
2021/05/17 00:38:58;;;;;;;3.88;1.35;;;;;;;10.79;79.55;99727.81;4988718;28;20042;-86
2021/05/17 00:41:25;;;;;;;4.20;1.23;;;;;;;10.94;79.24;99739.19;4995037;28;20038;-87
2021/05/17 00:43:55;;;;;;;3.63;1.45;;;;;;;10.85;78.76;99722.25;4977029;28;20085;-89
2021/05/17 00:46:22;;;;;;;3.85;1.10;;;;;;;10.93;78.60;99743.56;4976970;28;20045;-87
2021/05/17 00:48:49;;;;;;;3.75;1.65;;;;;;;10.68;79.11;99712.72;4995665;28;20042;-86
2021/05/17 00:51:16;;;;;;;2.35;1.13;;;;;;;10.81;78.85;99739.00;4983640;28;20097;-86
2021/05/17 00:53:42;;;;;;;4.65;1.30;;;;;;;10.79;78.91;99743.47;4977533;28;20039;-87
2021/05/17 00:56:08;;;;;;;5.80;1.75;;;;;;;10.75;79.09;99745.41;4988656;28;20038;-87
2021/05/17 00:58:35;;;;;;;4.93;1.60;;;;;;;10.51;79.54;99721.47;4996219;28;20046;-84
2021/05/17 01:01:02;;;;;;;5.60;1.98;;;;;;;10.50;79.81;99736.28;4982571;28;20045;-87
2021/05/17 01:03:28;;;;;;;5.55;1.48;;;;;;;10.55;79.69;99743.88;4976876;28;20394;-85
2021/05/17 01:05:58;;;;;;;5.20;1.20;;;;;;;10.58;79.28;99746.31;4980233;28;20035;-86
2021/05/17 01:08:26;;;;;;;5.68;1.55;;;;;;;10.06;79.27;99685.50;4982800;28;20027;-87
2021/05/17 01:10:57;;;;;;;5.45;1.33;;;;;;;10.36;79.96;99733.53;4995669;28;20168;-85
2021/05/17 01:13:22;;;;;;;3.63;1.48;;;;;;;10.45;80.05;99768.75;4988424;28;20082;-88
2021/05/17 01:15:48;;;;;;;5.38;1.77;;;;;;;10.34;79.40;99743.19;5000291;28;20046;-85
2021/05/17 01:18:16;;;;;;;6.47;1.48;;;;;;;10.31;79.53;99738.97;4980891;28;20394;-87
2021/05/17 01:20:45;;;;;;;5.97;1.58;;;;;;;10.20;79.72;99744.75;4995841;28;20039;-87
2021/05/17 01:23:50;;;;;;;7.57;1.98;;;;;;;10.28;79.80;99762.63;4996017;28;20042;-87
2021/05/17 01:26:05;;;;;;;;;;;;;;;10.20;79.96;99756.97;4994391;28;20102;-86
2021/05/17 01:28:33;;;;;;;5.65;1.80;;;;;;;10.20;80.47;99764.78;4995782;28;19953;-88
2021/05/17 01:31:01;;;;;;;6.95;1.80;;;;;;;10.14;80.07;99755.50;4995227;28;20487;-86
2021/05/17 01:33:31;;;;;;;16.40;2.38;;;;;;;10.12;79.96;99759.97;4994998;28;20085;-86
2021/05/17 01:35:59;;;;;;;6.07;2.13;;;;;;;10.35;79.53;99784.88;4980228;28;20023;-87
2021/05/17 01:38:25;;;;;;;8.18;1.73;;;;;;;10.38;79.17;99789.13;4976383;28;20472;-87
2021/05/17 01:40:53;;;;;;;6.95;1.88;;;;;;;10.24;79.72;99768.91;4976443;28;20039;-87
2021/05/17 01:43:21;;;;;;;4.63;1.85;;;;;;;10.29;79.42;99798.25;4982683;28;20049;-87
2021/05/17 01:45:49;;;;;;;9.23;1.80;;;;;;;10.20;79.90;99788.25;4995626;28;20053;-87
2021/05/17 01:48:22;;;;;;;6.07;1.48;;;;;;;10.16;79.84;99789.34;4995192;28;20038;-86
2021/05/17 01:50:49;;;;;;;8.73;1.83;;;;;;;9.94;80.59;99770.41;4981490;28;20041;-86
2021/05/17 01:53:17;;;;;;;6.47;2.00;;;;;;;10.05;80.76;99788.13;4975873;28;20034;-85
2021/05/17 01:55:43;;;;;;;6.07;2.15;;;;;;;10.02;80.62;99801.31;4975197;28;20062;-85
2021/05/17 01:58:12;;;;;;;8.50;2.03;;;;;;;10.03;80.76;99797.81;4975388;28;20047;-85
2021/05/17 02:00:43;;;;;;;7.20;2.20;;;;;;;9.59;80.69;99722.66;4975302;28;20045;-87
2021/05/17 02:03:09;;;;;;;5.47;1.73;;;;;;;10.06;80.39;99805.47;4987333;28;20050;-88
2021/05/17 02:05:34;;;;;;;8.55;2.08;;;;;;;10.10;80.37;99798.31;4994334;28;20482;-86
2021/05/17 02:08:02;;;;;;;8.07;1.88;;;;;;;10.13;79.72;99803.41;4993767;28;20038;-86
2021/05/17 02:10:28;;;;;;;6.97;2.15;;;;;;;10.18;79.53;99811.81;4991383;28;20157;-86
2021/05/17 02:12:56;;;;;;;9.88;2.20;;;;;;;10.20;79.53;99823.00;4997828;28;20062;-87
2021/05/17 02:15:24;;;;;;;5.03;1.73;;;;;;;10.17;79.08;99820.56;5009591;28;20034;-86
2021/05/17 02:18:08;;;;;;;15.00;2.55;;;;;;;10.17;79.38;99812.75;5009051;28;20062;-85
2021/05/17 02:20:37;;;;;;;8.52;1.77;;;;;;;10.27;79.05;99817.50;4998649;28;20031;-87
2021/05/17 02:23:07;;;;;;;7.28;1.63;;;;;;;10.09;78.91;99778.38;4980884;28;20038;-87
2021/05/17 02:25:33;;;;;;;6.78;1.40;;;;;;;10.45;77.72;99820.94;4993322;28;20596;-88
2021/05/17 02:27:58;;;;;;;6.57;1.73;;;;;;;10.12;78.59;99767.81;4996900;28;20042;-87
2021/05/17 02:30:25;;;;;;;5.65;2.08;;;;;;;10.25;78.45;99791.47;4985884;28;20038;-86
2021/05/17 02:32:54;;;;;;;6.05;1.42;;;;;;;10.43;78.33;99818.41;4987187;28;20102;-87
2021/05/17 02:35:21;;;;;;;11.05;2.15;;;;;;;10.49;78.76;99835.53;4987471;28;20038;-87
2021/05/17 02:37:49;;;;;;;5.78;2.28;;;;;;;10.45;78.44;99837.47;4977940;28;20170;-84
2021/05/17 02:40:15;;;;;;;6.25;1.90;;;;;;;10.46;78.94;99836.53;4988162;28;20038;-86
2021/05/17 02:42:49;;;;;;;7.70;2.25;;;;;;;10.42;79.62;99832.38;4997401;28;20125;-86
2021/05/17 02:45:18;;;;;;;5.10;1.70;;;;;;;10.43;79.83;99841.06;4987920;28;20047;-86
2021/05/17 02:47:44;;;;;;;11.38;2.92;;;;;;;10.20;80.70;99830.81;4990055;28;20689;-86
2021/05/17 02:50:12;;;;;;;10.30;2.95;;;;;;;10.18;81.54;99858.78;5013774;28;20018;-83
2021/05/17 02:52:40;;;;;;;6.93;3.22;;;;;;;10.07;82.08;99854.09;5007342;28;20048;-82
2021/05/17 02:55:14;;;;;;;13.00;3.03;;;;;;;10.04;81.67;99845.56;5014294;28;20077;-80
2021/05/17 02:57:42;;;;;;;9.63;3.13;;;;;;;10.09;81.68;99873.13;4999433;28;20038;-82
2021/05/17 03:00:12;;;;;;;10.65;3.28;;;;;;;10.11;82.45;99870.44;5029111;28;20029;-80
2021/05/17 03:03:15;;;;;;;7.85;2.72;;;;;;;10.18;81.51;99868.34;5033546;28;20038;-88
2021/05/17 03:05:42;;;;;;;11.48;3.25;;;;;;;10.05;81.95;99862.91;5021522;28;20486;-83
2021/05/17 03:08:14;;;;;;;12.75;3.08;;;;;;;9.92;82.32;99847.00;5021663;28;20030;-82
2021/05/17 03:10:43;;;;;;;11.18;3.45;;;;;;;10.18;82.16;99884.84;5017613;28;20108;-86
2021/05/17 03:13:11;;;;;;;11.98;3.67;;;;;;;9.84;82.36;99829.16;4984541;28;20038;-87
2021/05/17 03:15:39;;;;;;;10.27;4.28;;;;;;;10.13;82.65;99880.78;4977800;28;20551;-87
2021/05/17 03:18:05;;;;;;;11.75;3.35;;;;;;;10.22;82.17;99869.91;4995811;28;20034;-86
2021/05/17 03:20:32;;;;;;;10.75;2.95;;;;;;;10.34;81.97;99887.53;4990390;28;20110;-87
2021/05/17 03:22:59;;;;;;;11.57;2.88;;;;;;;10.32;82.23;99878.09;4988129;28;20034;-88
2021/05/17 03:25:30;;;;;;;11.55;3.30;;;;;;;10.34;82.06;99876.25;4992798;28;20034;-85
2021/05/17 03:27:56;;;;;;;7.40;2.88;;;;;;;10.37;82.29;99892.59;4996865;28;20038;-87
2021/05/17 03:30:22;;;;;;;10.85;3.92;;;;;;;10.27;82.10;99882.72;5001007;28;20041;-87
2021/05/17 03:32:48;;;;;;;9.90;3.65;;;;;;;10.20;81.60;99883.00;4990426;28;20478;-86
2021/05/17 03:35:14;;;;;;;11.63;3.78;;;;;;;10.27;81.90;99893.97;4990921;28;20799;-87
2021/05/17 03:37:40;;;;;;;12.75;3.55;;;;;;;10.23;81.53;99900.28;4983901;28;20035;-85
2021/05/17 03:40:06;;;;;;;12.48;3.75;;;;;;;10.08;80.89;99879.25;4994509;28;20057;-86
2021/05/17 03:42:32;;;;;;;11.00;4.65;;;;;;;10.03;81.67;99877.78;4997527;28;20046;-85
2021/05/17 03:44:58;;;;;;;13.70;4.10;;;;;;;10.14;81.68;99895.50;4995697;28;20050;-86
2021/05/17 03:47:23;;;;;;;10.57;3.97;;;;;;;10.22;81.61;99915.06;4992411;28;20031;-87
2021/05/17 03:49:49;;;;;;;10.15;3.70;;;;;;;10.25;82.08;99917.53;4994642;28;20069;-86
2021/05/17 03:52:14;;;;;;;13.80;3.47;;;;;;;10.22;82.12;99917.66;4977403;28;20038;-85
2021/05/17 03:54:41;;;;;;;13.38;3.70;;;;;;;9.99;81.55;99877.06;4977104;28;20065;-85
2021/05/17 03:57:07;;;;;;;10.82;4.13;;;;;;;9.93;81.81;99872.16;4977053;28;20035;-85
2021/05/17 03:59:33;;;;;;;13.10;3.90;;;;;;;10.29;81.69;99928.66;4976872;28;20034;-86
2021/05/17 04:01:59;;;;;;;12.93;3.88;;;;;;;10.25;82.19;99934.94;4985591;28;20042;-86
2021/05/17 04:04:26;;;;;;;11.65;3.75;;;;;;;10.25;81.78;99937.53;5005109;28;20429;-86
2021/05/17 04:07:03;;;;;;;10.35;4.93;;;;;;;10.02;82.13;99902.16;4995691;28;20169;-86
2021/05/17 04:15:04;;;;;;;11.10;3.78;;;;;;;10.09;82.03;99942.66;4983872;28;20049;-85
2021/05/17 04:17:30;;;;;;;14.00;3.90;;;;;;;10.24;81.76;99961.94;4995586;28;20386;-87
2021/05/17 04:19:56;;;;;;;11.65;3.35;;;;;;;10.27;81.69;99960.97;4995412;28;20034;-88
2021/05/17 04:22:22;;;;;;;13.68;3.60;;;;;;;10.27;81.17;99968.78;4995927;28;20065;-87
2021/05/17 04:24:47;;;;;;;11.27;3.75;;;;;;;10.22;81.16;99966.41;4989539;28;20483;-86
2021/05/17 04:27:13;;;;;;;12.35;3.80;;;;;;;10.24;81.23;99977.56;4976866;28;20047;-87
2021/05/17 04:29:38;;;;;;;12.40;4.38;;;;;;;10.12;81.57;99981.66;4982474;28;20038;-84
2021/05/17 04:32:04;;;;;;;16.65;4.07;;;;;;;10.07;81.49;99965.34;4987887;28;20079;-86
2021/05/17 04:34:30;;;;;;;12.23;4.22;;;;;;;10.14;81.29;99977.19;4976920;28;20046;-87
2021/05/17 04:36:56;;;;;;;8.98;3.65;;;;;;;10.13;80.99;99985.94;4977049;28;20531;-87
2021/05/17 04:39:22;;;;;;;10.68;3.55;;;;;;;10.05;79.95;99975.88;4987184;28;20042;-86
2021/05/17 04:41:47;;;;;;;13.90;3.88;;;;;;;10.03;80.42;99993.38;4994443;28;20440;-86
2021/05/17 04:44:13;;;;;;;11.10;3.83;;;;;;;10.06;80.76;100000.19;4991534;28;20027;-87
2021/05/17 04:46:38;;;;;;;10.38;3.88;;;;;;;10.03;81.01;100001.19;4995919;28;20088;-86
2021/05/17 04:49:04;;;;;;;14.30;3.70;;;;;;;10.09;80.69;100003.50;4995194;28;20094;-86
2021/05/17 04:51:29;;;;;;;14.00;3.90;;;;;;;10.05;80.58;99991.50;4991124;28;20525;-87
2021/05/17 04:53:55;;;;;;;14.60;3.90;;;;;;;10.12;80.54;99999.03;4996493;28;20607;-88
2021/05/17 04:56:20;;;;;;;10.60;3.72;;;;;;;10.26;80.11;100001.84;5002551;28;20058;-82
2021/05/17 04:58:46;;;;;;;12.68;5.25;;;;;;;10.07;79.62;99978.38;5010915;28;20049;-87
2021/05/17 05:01:12;;;;;;;8.80;3.80;;;;;;;10.34;79.16;100012.75;4996199;28;20049;-84
2021/05/17 05:03:37;;;;;;;13.02;4.32;;;;;;;10.18;79.64;100002.22;5002149;28;20026;-86
2021/05/17 05:06:03;;;;;;;10.63;4.00;;;;;;;10.40;79.28;100019.47;4999750;28;20046;-88
2021/05/17 05:08:28;;;;;;;14.43;4.15;;;;;;;10.24;79.51;100001.91;4977315;28;20039;-88
2021/05/17 05:10:54;;;;;;;14.60;5.20;;;;;;;10.07;79.35;99963.59;4982831;28;20042;-87
2021/05/17 05:13:20;;;;;;;15.10;5.25;;;;;;;10.42;79.52;100030.66;4994878;28;20035;-88
2021/05/17 05:15:50;;;;;;;13.73;5.95;;;;;;;10.32;79.23;100014.59;4991136;28;20077;-88
2021/05/17 05:18:15;;;;;;;16.02;5.10;;;;;;;10.34;79.16;100007.53;4983900;28;20081;-87
2021/05/17 05:20:41;;;;;;;19.45;6.03;;;;;;;10.50;79.17;100038.97;4982644;28;20035;-87
2021/05/17 05:23:12;;;;;;;17.25;6.28;;;;;;;10.46;79.79;100042.66;4992031;28;20030;-88
2021/05/17 05:26:24;;;;;;;16.45;6.32;;;;;;;10.35;79.07;100016.19;4982507;28;20038;-87
2021/05/17 05:28:48;;;;;;;16.20;6.20;;;;;;;10.63;79.18;100043.59;4993484;28;20038;-87
2021/05/17 05:31:20;;;;;;;16.85;6.40;;;;;;;10.62;79.40;100044.50;5004508;28;20039;-83
2021/05/17 05:33:46;;;;;;;19.35;7.10;;;;;;;10.47;79.00;100028.69;4982933;28;20046;-84
2021/05/17 05:36:11;;;;;;;15.00;6.85;;;;;;;10.69;78.95;100065.03;4980948;28;20085;-80
2021/05/17 05:38:37;;;;;;;16.88;7.47;;;;;;;10.70;78.89;100068.47;4996783;28;20041;-85
2021/05/17 05:41:03;;;;;;;14.18;7.72;;;;;;;10.68;79.69;100068.56;4996208;28;20172;-84
2021/05/17 05:43:29;;;;;;;19.52;8.43;;;;;;;10.59;78.82;100053.34;4985197;28;20061;-86
2021/05/17 05:45:54;;;;;;;17.33;9.13;;;;;;;10.77;78.64;100082.09;4979666;28;20039;-85
2021/05/17 05:48:21;;;;;;;19.63;9.60;;;;;;;10.71;78.41;100070.19;4985793;28;20037;-86
2021/05/17 05:50:47;;;;;;;17.55;9.18;;;;;;;10.78;78.23;100088.97;4986066;28;20030;-87
2021/05/17 05:53:17;;;;;;;19.58;9.05;;;;;;;10.85;77.90;100088.63;4994407;28;20030;-86
2021/05/17 05:55:44;;;;;;;15.18;8.30;;;;;;;10.67;78.05;100053.81;4991237;28;20038;-85
2021/05/17 05:58:10;;;;;;;20.80;9.52;;;;;;;10.59;78.28;100034.25;4990866;28;20023;-86
2021/05/17 06:00:36;;;;;;;17.40;9.05;;;;;;;10.45;77.96;100029.66;4989868;28;20061;-86
2021/05/17 06:03:02;;;;;;;23.15;9.40;;;;;;;10.85;78.13;100101.69;4997185;28;20064;-86
2021/05/17 06:05:28;;;;;;;19.35;9.43;;;;;;;10.94;77.96;100112.59;4997179;28;20030;-87
2021/05/17 06:07:56;;;;;;;15.23;9.98;;;;;;;11.01;77.83;100116.56;4986136;28;20027;-85
2021/05/17 06:10:22;;;;;;;17.42;8.68;;;;;;;11.05;77.44;100126.81;4993565;28;20422;-87
2021/05/17 06:12:48;;;;;;;18.67;8.55;;;;;;;11.05;77.41;100116.34;4995825;28;20038;-86
2021/05/17 06:15:15;;;;;;;20.63;10.35;;;;;;;11.25;76.70;100124.97;4994931;28;20085;-87
2021/05/17 06:17:41;;;;;;;18.48;9.10;;;;;;;11.26;76.15;100131.88;4993727;28;20169;-86
2021/05/17 06:20:08;;;;;;;25.00;9.77;;;;;;;11.06;75.85;100072.81;4993555;28;20031;-85
2021/05/17 06:22:36;;;;;;;17.42;8.55;;;;;;;11.17;75.38;100069.66;4979838;28;20035;-85
2021/05/17 06:25:07;;;;;;;14.23;8.13;;;;;;;11.42;75.63;100145.00;4980164;28;20118;-88
2021/05/17 06:27:34;;;;;;;13.48;7.70;;;;;;;11.43;75.92;100145.88;4986405;28;20030;-87
2021/05/17 06:30:03;;;;;;;17.25;7.85;;;;;;;11.15;75.43;100080.16;4987237;28;20034;-86
2021/05/17 06:32:30;;;;;;;16.15;7.20;;;;;;;11.66;74.55;100139.47;4994711;28;20042;-88
2021/05/17 06:34:56;;;;;;;16.23;8.80;;;;;;;11.79;74.70;100142.28;5001610;28;20414;-87
2021/05/17 06:37:21;;;;;;;17.33;8.07;;;;;;;11.92;74.28;100150.34;4999665;28;20447;-88
2021/05/17 06:39:47;;;;;;;17.27;7.80;;;;;;;12.06;73.56;100154.84;5000109;28;20130;-87
2021/05/17 06:42:14;;;;;;;15.38;7.10;;;;;;;12.21;72.64;100142.75;5002087;28;20038;-89
2021/05/17 06:44:41;;;;;;;19.88;6.97;;;;;;;12.51;71.95;100152.47;4998861;28;20034;-87
2021/05/17 06:47:10;;;;;;;18.48;6.22;;;;;;;12.54;70.55;100144.44;4982503;28;20031;-88
2021/05/17 06:49:42;;;;;;;14.88;6.10;;;;;;;12.62;70.57;100152.72;4997407;28;20066;-89
2021/05/17 06:52:12;;;;;;;13.07;6.05;;;;;;;12.70;70.51;100154.91;5015417;28;20036;-84
2021/05/17 06:54:41;;;;;;;15.88;6.78;;;;;;;12.73;70.27;100160.84;5021440;28;20098;-82
2021/05/17 06:59:43;;;;;;;16.30;6.20;;;;;;;12.29;70.95;100151.00;5019956;28;20056;-83
2021/05/17 07:02:24;;;;;;;13.00;5.85;;;;;;;12.26;70.96;100145.97;5019901;28;20031;-83
2021/05/17 07:04:56;;;;;;;12.40;5.43;;;;;;;12.64;70.66;100172.63;5010173;28;20038;-85
2021/05/17 07:07:54;;;;;;;13.52;5.00;;;;;;;12.67;70.73;100166.41;4997643;28;20526;-81
2021/05/17 07:12:55;;;;;;;12.25;5.10;;;;;;;12.79;69.58;100193.66;4980682;28;20050;-82
2021/05/17 07:15:20;;;;;;;11.88;4.43;;;;;;;12.81;69.55;100179.56;4978642;28;20027;-82
2021/05/17 07:17:46;;;;;;;12.52;5.00;;;;;;;12.74;69.72;100169.53;4978557;28;20035;-82
2021/05/17 07:20:15;;;;;;;13.98;4.85;;;;;;;12.64;70.00;100190.97;4977976;28;20039;-82
2021/05/17 07:25:25;;;;;;;15.75;5.50;;;;;;;12.57;69.76;100189.63;5003193;28;20049;-82
2021/05/17 07:27:51;;;;;;;15.93;4.97;;;;;;;12.73;70.17;100205.34;5008738;28;20038;-82
2021/05/17 07:30:18;;;;;;;12.32;4.72;;;;;;;12.53;69.67;100167.16;4997671;28;20171;-82
2021/05/17 07:32:44;;;;;;;14.30;5.10;;;;;;;13.06;70.16;100224.50;4995995;28;20104;-82
2021/05/17 07:35:10;;;;;;;10.23;4.70;;;;;;;13.05;69.36;100226.28;4997220;28;20480;-82
2021/05/17 07:37:35;;;;;;;18.40;5.72;;;;;;;12.73;69.76;100200.13;4997314;28;20045;-82
2021/05/17 07:40:01;;;;;;;12.93;5.70;;;;;;;12.35;70.72;100184.69;4997368;28;20038;-82
2021/05/17 07:42:26;;;;;;;11.88;4.95;;;;;;;12.00;71.56;100162.13;4997182;28;20035;-83
2021/05/17 07:44:52;;;;;;;14.15;5.22;;;;;;;12.51;71.18;100233.63;4978523;28;20035;-82
2021/05/17 07:47:18;;;;;;;11.88;5.80;;;;;;;12.86;69.97;100234.31;4976796;28;20042;-82
2021/05/17 07:49:51;;;;;;;11.43;4.90;;;;;;;12.99;69.80;100234.50;4989864;28;20034;-86
2021/05/17 07:52:16;;;;;;;12.25;4.35;;;;;;;13.12;68.64;100227.63;4987916;28;20110;-85
2021/05/17 07:54:43;;;;;;;12.02;5.03;;;;;;;13.33;68.20;100232.59;4999412;28;20077;-89
2021/05/17 07:57:09;;;;;;;12.98;4.43;;;;;;;13.31;68.57;100234.44;5003888;28;20034;-88
2021/05/17 07:59:35;;;;;;;12.13;4.10;;;;;;;13.27;67.62;100206.72;4999032;28;20379;-85
2021/05/17 08:02:01;;;;;;;9.25;3.65;;;;;;;13.44;66.24;100229.38;4997722;28;20073;-85
2021/05/17 08:04:27;;;;;;;10.48;3.20;;;;;;;13.75;64.81;100240.69;5015114;28;20034;-87
2021/05/17 08:06:53;;;;;;;6.50;2.53;;;;;;;13.54;64.59;100232.31;5000388;28;20037;-85
2021/05/17 08:09:25;;;;;;;12.10;3.03;;;;;;;13.06;65.48;100185.19;4998387;28;20051;-86
2021/05/17 08:11:51;;;;;;;8.77;3.05;;;;;;;13.24;65.02;100196.41;5002576;28;20034;-84
2021/05/17 08:14:17;;;;;;;12.15;3.33;;;;;;;13.71;64.53;100226.91;4997373;28;20010;-84
2021/05/17 08:16:45;;;;;;;8.63;2.88;;;;;;;14.48;62.90;100260.81;5014036;28;20680;-89
2021/05/17 08:19:10;;;;;;;11.88;2.97;;;;;;;14.28;62.59;100242.81;4994231;28;20095;-84
2021/05/17 08:21:36;;;;;;;8.07;2.92;;;;;;;14.12;62.88;100254.25;5006336;28;20034;-84
2021/05/17 08:24:02;;;;;;;8.27;2.95;;;;;;;13.80;62.71;100212.41;5004876;28;20475;-85
2021/05/17 08:26:27;;;;;;;10.55;2.90;;;;;;;14.05;62.00;100240.66;5011442;28;20041;-83
2021/05/17 08:28:54;;;;;;;7.60;2.80;;;;;;;14.52;61.46;100250.97;5006712;28;20058;-85
2021/05/17 08:31:22;;;;;;;10.45;3.45;;;;;;;15.01;60.33;100265.47;5007348;28;20069;-84
2021/05/17 08:33:48;;;;;;;9.65;2.97;;;;;;;14.96;60.28;100278.06;5012419;28;20046;-82
2021/05/17 08:36:14;;;;;;;8.85;2.35;;;;;;;14.37;59.92;100282.47;5015941;28;20114;-83
2021/05/17 08:38:39;;;;;;;9.18;2.55;;;;;;;13.66;61.67;100265.69;5016396;28;20018;-82
2021/05/17 08:41:06;;;;;;;7.50;2.60;;;;;;;13.63;61.20;100250.13;5004593;28;20049;-83
2021/05/17 08:43:34;;;;;;;10.73;2.53;;;;;;;14.01;60.32;100281.16;5000521;28;20521;-83
2021/05/17 08:46:01;;;;;;;9.77;2.30;;;;;;;14.51;59.07;100286.91;4997584;28;20070;-82
2021/05/17 08:48:27;;;;;;;9.73;2.15;;;;;;;14.17;58.64;100243.47;4987640;28;20037;-83
2021/05/17 08:50:52;;;;;;;7.95;2.08;;;;;;;14.18;58.57;100245.16;4982027;28;20036;-83
2021/05/17 08:53:19;;;;;;;4.85;2.05;;;;;;;14.59;58.06;100241.78;5014126;28;20428;-82
2021/05/17 08:55:49;;;;;;;4.18;1.88;;;;;;;15.16;55.36;100292.56;4983828;28;20038;-83
2021/05/17 08:58:19;;;;;;;5.78;1.60;;;;;;;15.15;54.97;100259.34;4980518;28;20090;-83
2021/05/17 09:00:46;;;;;;;8.35;2.20;;;;;;;14.87;56.48;100235.66;4996296;28;20487;-82
2021/05/17 09:03:12;;;;;;;5.70;2.00;;;;;;;14.53;57.31;100243.00;4991767;28;20031;-84
2021/05/17 09:05:38;;;;;;;7.13;1.98;;;;;;;14.18;57.11;100169.88;4987869;28;20529;-83
2021/05/17 09:08:05;;;;;;;3.85;1.75;;;;;;;14.60;57.35;100289.88;4998215;28;20117;-85
2021/05/17 09:10:38;;;;;;;5.47;1.80;;;;;;;14.38;57.78;100263.16;4996182;28;20102;-83
2021/05/17 09:13:13;;;;;;;6.70;1.90;;;;;;;14.70;56.91;100304.19;4997869;28;20112;-84
2021/05/17 09:15:47;;;;;;;5.35;1.75;;;;;;;14.80;57.26;100307.09;4994967;28;20034;-82
2021/05/17 09:18:19;;;;;;;6.10;2.17;;;;;;;15.34;56.04;100307.16;4994917;28;20050;-81
2021/05/17 09:20:50;;;;;;;7.28;2.35;;;;;;;15.15;55.70;100257.53;4997329;28;20163;-83
2021/05/17 09:23:26;;;;;;;8.88;2.42;;;;;;;15.51;55.41;100306.06;5009488;28;20040;-84
2021/05/17 09:26:13;;;;;;;5.82;2.85;;;;;;;15.86;54.77;100299.44;5003018;28;20065;-84
2021/05/17 09:28:53;;;;;;;7.15;2.17;;;;;;;15.60;55.52;100307.25;4995612;28;20043;-83
2021/05/17 09:31:21;;;;;;;5.00;1.88;;;;;;;15.23;56.42;100298.28;4994929;28;20045;-84
2021/05/17 09:33:59;;;;;;;5.38;2.20;;;;;;;14.86;56.21;100248.91;4991619;28;20093;-84
2021/05/17 09:36:37;;;;;;;6.50;1.95;;;;;;;14.73;57.22;100310.09;4994618;28;20046;-84
2021/05/17 09:39:13;;;;;;;6.93;2.75;;;;;;;14.29;59.46;100328.53;4994662;28;20106;-88
2021/05/17 09:41:46;;;;;;;7.53;2.90;;;;;;;14.20;59.14;100290.56;4996424;28;20045;-89
2021/05/17 09:44:17;;;;;;;7.72;2.65;;;;;;;14.60;58.27;100295.13;4995874;28;20483;-90
2021/05/17 09:47:23;;;;;;;6.10;2.20;;;;;;;15.67;55.89;100323.47;4997072;28;20092;-88
2021/05/17 09:49:56;;;;;;;6.40;1.98;;;;;;;15.90;55.58;100329.03;4975184;28;20051;-88
2021/05/17 09:52:24;;;;;;;6.30;2.25;;;;;;;15.19;55.77;100337.91;4972613;28;20050;-85
2021/05/17 09:55:07;;;;;;;6.43;2.40;;;;;;;15.20;56.74;100330.88;4983446;28;20038;-87
2021/05/17 09:57:37;;;;;;;5.25;2.28;;;;;;;15.79;55.14;100332.34;4992023;28;20061;-88
2021/05/17 10:00:17;;;;;;;7.13;2.33;;;;;;;16.26;53.77;100330.13;4979321;28;20116;-84
2021/05/17 10:02:47;;;;;;;7.45;2.58;;;;;;;15.75;54.94;100308.03;4981897;28;20035;-85
2021/05/17 10:05:28;;;;;;;5.72;2.45;;;;;;;16.13;55.36;100340.66;4987710;28;20031;-89
2021/05/17 10:08:03;;;;;;;6.47;2.67;;;;;;;15.61;56.09;100319.47;4977813;28;20117;-87
2021/05/17 10:10:29;;;;;;;7.13;2.67;;;;;;;15.25;57.14;100333.22;4995269;28;20031;-89
2021/05/17 10:12:57;;;;;;;7.13;2.45;;;;;;;14.77;59.00;100338.78;4998219;28;20073;-87
2021/05/17 10:15:25;;;;;;;4.95;2.58;;;;;;;14.76;58.00;100281.94;4994273;28;20038;-86
2021/05/17 10:17:52;;;;;;;5.60;2.42;;;;;;;14.72;57.60;100231.34;4980344;28;20436;-86
2021/05/17 10:20:22;;;;;;;7.13;2.00;;;;;;;15.36;56.29;100294.75;4993494;28;20045;-87
2021/05/17 10:22:53;;;;;;;5.68;2.30;;;;;;;15.73;55.39;100328.31;5001497;28;20044;-86
2021/05/17 10:25:23;;;;;;;4.70;2.80;;;;;;;15.89;55.22;100349.25;4999208;28;20129;-88
2021/05/17 10:27:54;;;;;;;4.65;2.35;;;;;;;16.23;53.36;100304.03;4986061;28;20037;-87
2021/05/17 10:30:26;;;;;;;6.53;2.72;;;;;;;16.62;52.29;100270.59;5004137;28;20073;-88
2021/05/17 10:32:52;;;;;;;7.07;2.42;;;;;;;17.62;51.41;100346.16;5000299;28;20395;-88
2021/05/17 10:35:29;;;;;;;5.40;2.35;;;;;;;17.36;50.22;100294.34;5002293;28;20089;-88
2021/05/17 10:38:46;;;;;;;6.80;2.63;;;;;;;17.18;47.97;100348.44;5006951;28;20076;-86
2021/05/17 10:41:37;;;;;;;8.15;2.28;;;;;;;17.34;49.09;100343.72;5002195;28;20043;-84
2021/05/17 10:46:54;;;;;;;5.82;2.50;;;;;;;16.15;50.91;100354.59;5011938;28;20049;-85
2021/05/17 10:49:33;;;;;;;4.75;2.08;;;;;;;16.19;51.82;100358.69;5021153;28;20026;-83
2021/05/17 10:52:10;;;;;;;5.28;2.30;;;;;;;16.54;51.38;100346.69;5020801;28;20036;-86
2021/05/17 10:54:48;;;;;;;4.75;2.50;;;;;;;16.21;50.59;100224.28;5020389;28;20049;-84
2021/05/17 10:57:40;;;;;;;5.15;2.40;;;;;;;16.52;50.83;100285.38;5018503;28;20046;-87
2021/05/17 11:00:27;;;;;;;4.75;2.33;;;;;;;17.48;49.47;100324.25;4995758;28;20039;-89
2021/05/17 11:03:15;;;;;;;4.38;2.53;;;;;;;17.21;48.63;100332.38;5004528;28;20095;-87
2021/05/17 11:05:42;;;;;;;5.78;2.65;;;;;;;17.59;48.08;100305.00;4983189;28;20090;-86
2021/05/17 11:08:13;;;;;;;6.60;2.60;;;;;;;18.21;45.71;100317.09;4991299;28;20038;-87
2021/05/17 11:10:49;;;;;;;4.28;2.15;;;;;;;18.59;44.65;100344.16;4996703;28;20061;-86
2021/05/17 11:13:20;;;;;;;4.90;2.60;;;;;;;19.08;44.14;100336.00;4998119;28;20030;-87
2021/05/17 11:16:06;;;;;;;4.22;2.08;;;;;;;18.84;44.28;100332.50;4996634;28;20070;-88
2021/05/17 11:18:39;;;;;;;5.97;2.47;;;;;;;18.36;46.97;100348.59;5004075;28;20031;-88
2021/05/17 11:21:06;;;;;;;5.18;2.70;;;;;;;17.55;49.77;100343.97;5007037;28;20084;-86
2021/05/17 11:23:31;;;;;;;7.10;2.83;;;;;;;17.34;49.12;100350.81;5000265;28;20030;-85
2021/05/17 11:26:12;;;;;;;4.18;2.55;;;;;;;17.02;50.08;100325.78;4997538;28;20361;-85
2021/05/17 11:28:38;;;;;;;7.47;2.83;;;;;;;17.39;50.60;100352.16;4998952;28;20453;-86
2021/05/17 11:34:04;;;;;;;6.90;3.13;;;;;;;17.82;49.65;100352.59;4987381;28;20103;-86
2021/05/17 11:36:38;;;;;;;8.55;2.95;;;;;;;17.93;49.37;100324.44;4995734;28;20137;-87
2021/05/17 11:39:16;;;;;;;6.32;2.85;;;;;;;18.70;47.28;100362.69;4997010;28;20498;-88
2021/05/17 11:42:08;;;;;;;6.32;3.35;;;;;;;18.81;48.29;100359.19;4997891;28;20045;-88
2021/05/17 11:44:56;;;;;;;8.00;4.00;;;;;;;18.05;50.09;100306.00;4997542;28;20589;-86
2021/05/17 11:47:24;;;;;;;8.80;4.38;;;;;;;17.99;50.38;100356.66;4997736;28;20398;-87
2021/05/17 11:49:51;;;;;;;7.60;3.78;;;;;;;17.74;52.30;100359.28;4997671;28;20046;-88
2021/05/17 11:52:25;;;;;;;11.23;4.35;;;;;;;17.00;52.80;100359.31;4995275;28;20426;-87
2021/05/17 11:54:54;;;;;;;9.63;4.15;;;;;;;16.99;53.30;100348.88;4997702;28;20038;-88